Time;durP1;ratioP1;P1;durP2;ratioP2;P2;SDS_P1;SDS_P2;PMS_P1;PMS_P2;Temp;Humidity;BMP_temperature;BMP_pressure;BME280_temperature;BME280_humidity;BME280_pressure;Samples;Min_cycle;Max_cycle;Signal;HPM_P1;HPM_P2
2023/05/24 00:01:24;;;;;;;5.67;4.87;;;;;16.60;96672.00;;;;4933881;29;20220;-70
2023/05/24 00:04:13;;;;;;;9.87;5.53;;;;;16.50;96669.00;;;;4935437;29;20236;-71
2023/05/24 00:07:03;;;;;;;6.43;5.27;;;;;16.40;96671.00;;;;4929068;29;20224;-71
2023/05/24 00:09:52;;;;;;;7.13;5.23;;;;;16.60;96681.00;;;;4935284;28;20211;-71
2023/05/24 00:12:41;;;;;;;7.00;5.70;;;;;16.70;96675.00;;;;4933256;29;20197;-71
2023/05/24 00:15:30;;;;;;;6.83;5.20;;;;;16.80;96675.00;;;;4934763;29;20240;-71
2023/05/24 00:18:21;;;;;;;10.03;5.23;;;;;17.00;96676.00;;;;4931042;29;20213;-71
2023/05/24 00:21:10;;;;;;;9.40;5.63;;;;;17.10;96675.00;;;;4934216;29;20701;-71
2023/05/24 00:23:59;;;;;;;7.03;6.27;;;;;17.00;96678.00;;;;4934360;29;20213;-71
2023/05/24 00:26:48;;;;;;;8.63;5.97;;;;;17.00;96663.00;;;;4934446;29;20306;-71
2023/05/24 00:29:37;;;;;;;6.17;5.57;;;;;16.90;96672.00;;;;4933506;29;20212;-72
2023/05/24 00:32:26;;;;;;;7.13;6.43;;;;;17.00;96666.00;;;;4933017;29;20223;-71
2023/05/24 00:35:17;;;;;;;7.40;6.70;;;;;16.70;96673.00;;;;4933840;29;20208;-70
2023/05/24 00:38:06;;;;;;;8.27;5.37;;;;;16.80;96674.00;;;;4929783;29;20216;-70
2023/05/24 00:40:56;;;;;;;6.23;5.60;;;;;16.80;96674.00;;;;4927657;29;20889;-71
2023/05/24 00:43:45;;;;;;;6.10;5.50;;;;;17.00;96673.00;;;;4934618;28;20226;-71
2023/05/24 00:46:34;;;;;;;10.67;5.67;;;;;17.10;96693.00;;;;4932504;29;20239;-71
2023/05/24 00:49:24;;;;;;;9.40;7.00;;;;;17.10;96686.00;;;;4933034;29;20209;-71
2023/05/24 00:52:15;;;;;;;8.10;5.63;;;;;17.00;96683.00;;;;4928561;29;20215;-71
2023/05/24 00:55:05;;;;;;;8.90;5.83;;;;;17.20;96685.00;;;;4932345;29;20204;-71
2023/05/24 00:57:54;;;;;;;6.93;5.80;;;;;17.20;96683.00;;;;4928054;29;20212;-71
2023/05/24 01:00:44;;;;;;;5.67;5.00;;;;;17.30;96684.00;;;;4932598;29;20220;-72
2023/05/24 01:03:34;;;;;;;8.30;5.10;;;;;16.70;96683.00;;;;4933086;29;20212;-71
2023/05/24 01:06:23;;;;;;;6.60;5.53;;;;;16.50;96681.00;;;;4933342;29;20240;-71
2023/05/24 01:09:26;;;;;;;6.30;5.30;;;;;16.80;96681.00;;;;4932251;29;20584;-72
2023/05/24 01:12:21;;;;;;;8.73;5.73;;;;;17.10;96681.00;;;;4930249;29;20223;-73
2023/05/24 01:15:18;;;;;;;5.77;5.17;;;;;17.00;96685.00;;;;4928500;29;20212;-72
2023/05/24 01:18:11;;;;;;;8.87;4.87;;;;;17.00;96694.00;;;;4929557;29;20678;-72
2023/05/24 01:21:06;;;;;;;8.00;5.60;;;;;16.80;96688.00;;;;4933698;29;20211;-71
2023/05/24 01:24:04;;;;;;;7.57;5.60;;;;;16.10;96694.00;;;;4933165;29;20212;-73
2023/05/24 01:27:13;;;;;;;7.27;6.33;;;;;16.30;96687.00;;;;4933713;29;20232;-71
2023/05/24 01:30:03;;;;;;;11.37;5.77;;;;;16.40;96695.00;;;;4933772;29;20219;-70
2023/05/24 01:32:52;;;;;;;5.90;5.33;;;;;16.00;96689.00;;;;4932692;29;20212;-73
2023/05/24 01:35:41;;;;;;;6.90;5.90;;;;;16.50;96699.00;;;;4932289;29;20220;-72
2023/05/24 01:38:30;;;;;;;11.63;6.90;;;;;16.70;96701.00;;;;4932158;29;20690;-72
2023/05/24 01:41:25;;;;;;;8.50;5.23;;;;;16.70;96695.00;;;;4932567;29;20216;-72
2023/05/24 01:44:25;;;;;;;7.07;6.13;;;;;16.40;96699.00;;;;4932671;29;20219;-69
2023/05/24 01:47:28;;;;;;;6.20;5.23;;;;;16.30;96696.00;;;;4929271;29;20748;-73
2023/05/24 01:50:20;;;;;;;7.23;5.77;;;;;16.60;96698.00;;;;4932335;29;20211;-72
2023/05/24 01:53:14;;;;;;;6.47;5.87;;;;;16.80;96697.00;;;;4932800;29;20220;-70
2023/05/24 01:56:05;;;;;;;9.63;6.23;;;;;16.90;96695.00;;;;4932976;29;20224;-71
2023/05/24 01:58:55;;;;;;;6.27;5.17;;;;;16.90;96700.00;;;;4926545;29;20204;-70
2023/05/24 02:01:46;;;;;;;10.97;5.70;;;;;17.00;96701.00;;;;4931368;29;20243;-71
2023/05/24 02:04:35;;;;;;;9.27;6.20;;;;;17.10;96694.00;;;;4930906;29;20213;-71
2023/05/24 02:07:25;;;;;;;8.17;5.80;;;;;17.10;96701.00;;;;4930670;29;20352;-71
2023/05/24 02:10:14;;;;;;;5.03;4.50;;;;;17.10;96702.00;;;;4932659;29;20211;-71
2023/05/24 02:13:03;;;;;;;6.87;5.80;;;;;17.10;96701.00;;;;4932937;29;20216;-71
2023/05/24 02:15:53;;;;;;;8.97;5.63;;;;;17.00;96702.00;;;;4932011;29;20231;-72
2023/05/24 02:18:45;;;;;;;5.97;5.03;;;;;17.00;96707.00;;;;4931673;29;20197;-72
2023/05/24 02:21:35;;;;;;;6.43;5.77;;;;;17.00;96709.00;;;;4932108;28;20678;-71
2023/05/24 02:24:24;;;;;;;5.90;5.33;;;;;17.10;96715.00;;;;4931369;29;20215;-71
2023/05/24 02:27:13;;;;;;;6.83;5.80;;;;;16.90;96717.00;;;;4931600;29;20740;-71
2023/05/24 02:30:02;;;;;;;6.23;5.63;;;;;16.80;96711.00;;;;4926417;29;20584;-70
2023/05/24 02:32:51;;;;;;;7.63;6.23;;;;;17.00;96716.00;;;;4931862;29;20594;-71
2023/05/24 02:35:41;;;;;;;6.77;6.17;;;;;17.10;96714.00;;;;4931369;29;20732;-71
2023/05/24 02:38:31;;;;;;;7.20;6.47;;;;;17.20;96715.00;;;;4931306;29;20252;-71
2023/05/24 02:41:20;;;;;;;9.83;5.87;;;;;17.00;96708.00;;;;4931428;29;20603;-70
2023/05/24 02:44:10;;;;;;;9.40;6.50;;;;;17.00;96707.00;;;;4932557;29;20231;-70
2023/05/24 02:46:59;;;;;;;6.27;5.00;;;;;16.90;96709.00;;;;4930864;29;20236;-71
2023/05/24 02:49:48;;;;;;;6.30;5.27;;;;;17.10;96712.00;;;;4931247;29;20209;-71
2023/05/24 02:52:38;;;;;;;8.77;6.10;;;;;16.90;96708.00;;;;4931088;29;20204;-71
2023/05/24 02:55:27;;;;;;;7.50;6.07;;;;;16.90;96706.00;;;;4929412;29;20220;-71
2023/05/24 02:58:17;;;;;;;6.73;5.63;;;;;16.80;96708.00;;;;4930323;29;20201;-71
2023/05/24 03:01:06;;;;;;;8.33;6.37;;;;;16.80;96701.00;;;;4928748;29;20231;-71
2023/05/24 03:03:55;;;;;;;5.80;5.23;;;;;16.80;96701.00;;;;4931371;29;20881;-71
2023/05/24 03:06:44;;;;;;;11.10;5.60;;;;;16.90;96709.00;;;;4930817;29;20228;-71
2023/05/24 03:09:35;;;;;;;6.53;5.53;;;;;17.00;96709.00;;;;4931284;29;20216;-71
2023/05/24 03:12:24;;;;;;;7.63;6.17;;;;;17.10;96711.00;;;;4930389;29;20220;-71
2023/05/24 03:15:13;;;;;;;6.93;5.30;;;;;17.10;96711.00;;;;4931594;29;20709;-71
2023/05/24 03:18:02;;;;;;;10.77;6.83;;;;;16.90;96714.00;;;;4930996;29;20216;-71
2023/05/24 03:20:51;;;;;;;7.30;5.33;;;;;16.80;96714.00;;;;4930577;29;20304;-71
2023/05/24 03:23:40;;;;;;;6.37;5.67;;;;;16.50;96720.00;;;;4930915;29;20239;-71
2023/05/24 03:26:30;;;;;;;5.80;5.17;;;;;16.30;96717.00;;;;4927838;29;20853;-70
2023/05/24 03:29:19;;;;;;;7.03;5.03;;;;;16.30;96716.00;;;;4930643;29;20209;-71
2023/05/24 03:32:08;;;;;;;5.57;4.87;;;;;16.20;96725.00;;;;4927878;29;20212;-71
2023/05/24 03:34:59;;;;;;;9.67;5.63;;;;;16.50;96723.00;;;;4925863;29;20208;-71
2023/05/24 03:37:48;;;;;;;6.67;5.73;;;;;16.50;96730.00;;;;4932139;28;20223;-71
2023/05/24 03:40:37;;;;;;;7.53;5.53;;;;;16.80;96727.00;;;;4930244;29;20215;-72
2023/05/24 03:43:27;;;;;;;8.43;6.50;;;;;16.90;96730.00;;;;4930357;29;20227;-72
2023/05/24 03:46:16;;;;;;;10.30;5.43;;;;;16.90;96723.00;;;;4931365;29;20232;-72
2023/05/24 03:49:07;;;;;;;6.20;5.60;;;;;16.90;96722.00;;;;4926450;29;20208;-72
2023/05/24 03:51:56;;;;;;;7.43;5.93;;;;;16.90;96725.00;;;;4930869;29;20204;-72
2023/05/24 03:54:45;;;;;;;10.40;6.83;;;;;16.90;96724.00;;;;4931530;28;20209;-72
2023/05/24 03:57:34;;;;;;;8.07;5.70;;;;;17.00;96723.00;;;;4930590;29;20678;-72
2023/05/24 04:00:25;;;;;;;6.77;5.93;;;;;17.10;96731.00;;;;4928172;29;20215;-72
2023/05/24 04:03:14;;;;;;;14.10;6.63;;;;;17.20;96735.00;;;;4931109;29;20209;-72
2023/05/24 04:06:03;;;;;;;10.70;6.50;;;;;17.20;96736.00;;;;4930489;29;20597;-72
2023/05/24 04:08:52;;;;;;;7.53;6.07;;;;;17.10;96743.00;;;;4924071;29;20208;-72
2023/05/24 04:11:41;;;;;;;6.43;5.50;;;;;16.80;96749.00;;;;4929788;29;20697;-72
2023/05/24 04:14:30;;;;;;;5.47;4.97;;;;;16.70;96750.00;;;;4930355;29;20204;-72
2023/05/24 04:17:23;;;;;;;6.57;5.83;;;;;16.60;96749.00;;;;4928895;29;20228;-72
2023/05/24 04:20:13;;;;;;;5.93;5.37;;;;;16.60;96757.00;;;;4930227;29;20236;-72
2023/05/24 04:23:02;;;;;;;6.13;5.63;;;;;16.70;96761.00;;;;4930677;29;20209;-72
2023/05/24 04:25:51;;;;;;;10.10;5.73;;;;;16.70;96760.00;;;;4931096;29;20713;-72
2023/05/24 04:28:41;;;;;;;6.87;6.17;;;;;16.50;96760.00;;;;4932099;29;20212;-72
2023/05/24 04:31:32;;;;;;;7.70;5.70;;;;;16.40;96756.00;;;;4933601;29;20220;-72
2023/05/24 04:34:22;;;;;;;7.20;6.10;;;;;16.60;96761.00;;;;4931273;29;20219;-73
2023/05/24 04:37:12;;;;;;;9.27;5.67;;;;;16.70;96763.00;;;;4934236;29;20724;-72
2023/05/24 04:40:02;;;;;;;6.77;6.07;;;;;16.60;96758.00;;;;4934514;29;20598;-73
2023/05/24 04:42:52;;;;;;;6.73;6.13;;;;;16.50;96754.00;;;;4927301;29;20224;-73
2023/05/24 04:45:40;;;;;;;10.27;6.83;;;;;16.40;96756.00;;;;4934356;29;21074;-71
2023/05/24 04:48:29;;;;;;;6.10;5.33;;;;;16.30;96761.00;;;;4939116;29;20201;-72
2023/05/24 04:51:22;;;;;;;7.10;6.40;;;;;16.40;96761.00;;;;4930971;29;20209;-72
2023/05/24 04:54:11;;;;;;;8.30;6.17;;;;;16.40;96766.00;;;;4936939;29;20213;-72
2023/05/24 04:57:00;;;;;;;7.03;5.60;;;;;16.60;96769.00;;;;4939599;29;20728;-71
2023/05/24 04:59:49;;;;;;;7.07;6.37;;;;;16.60;96773.00;;;;4931493;29;20205;-72
2023/05/24 05:02:38;;;;;;;8.77;6.67;;;;;16.70;96776.00;;;;4931103;29;21653;-72
2023/05/24 05:05:27;;;;;;;8.40;6.17;;;;;16.90;96781.00;;;;4933058;29;20936;-72
2023/05/24 05:08:18;;;;;;;8.47;6.73;;;;;16.80;96778.00;;;;4930674;29;20728;-72
2023/05/24 05:11:07;;;;;;;8.80;6.70;;;;;16.80;96776.00;;;;4929644;29;20212;-71
2023/05/24 05:13:56;;;;;;;6.30;5.67;;;;;16.80;96778.00;;;;4932158;29;20689;-72
2023/05/24 05:16:45;;;;;;;5.93;4.80;;;;;16.90;96773.00;;;;4933601;29;20598;-72
2023/05/24 05:19:34;;;;;;;6.77;6.07;;;;;16.80;96786.00;;;;4932716;29;20595;-72
2023/05/24 05:22:23;;;;;;;6.63;5.70;;;;;16.60;96783.00;;;;4932535;29;20220;-72
2023/05/24 05:25:14;;;;;;;9.33;7.03;;;;;16.70;96775.00;;;;4932303;29;20205;-73
2023/05/24 05:28:03;;;;;;;7.70;6.07;;;;;16.70;96777.00;;;;4938547;29;20224;-72
2023/05/24 05:30:52;;;;;;;6.77;6.10;;;;;16.60;96778.00;;;;4939937;29;20212;-71
2023/05/24 05:33:41;;;;;;;12.00;6.07;;;;;16.60;96783.00;;;;4940510;29;20212;-71
2023/05/24 05:36:31;;;;;;;7.17;6.00;;;;;16.70;96783.00;;;;4938831;29;20746;-72
2023/05/24 05:39:20;;;;;;;8.53;6.27;;;;;16.50;96775.00;;;;4940169;28;20208;-73
2023/05/24 05:42:10;;;;;;;8.03;5.90;;;;;16.60;96773.00;;;;4940874;28;20589;-72
2023/05/24 05:44:59;;;;;;;6.87;5.70;;;;;16.70;96773.00;;;;4931851;29;20219;-72
2023/05/24 05:47:48;;;;;;;9.40;7.07;;;;;16.70;96780.00;;;;4935589;29;20618;-72
2023/05/24 05:50:37;;;;;;;7.07;6.17;;;;;16.90;96777.00;;;;4938598;29;20215;-72
2023/05/24 05:53:26;;;;;;;8.20;6.83;;;;;17.20;96780.00;;;;4936811;29;20205;-72
2023/05/24 05:56:15;;;;;;;11.03;9.70;;;;;17.10;96783.00;;;;4933742;29;20612;-72
2023/05/24 05:59:06;;;;;;;11.03;6.10;;;;;17.30;96783.00;;;;4932560;29;20208;-72
2023/05/24 06:01:55;;;;;;;6.73;6.03;;;;;17.10;96789.00;;;;4931032;29;20224;-72
2023/05/24 06:04:44;;;;;;;6.53;5.83;;;;;17.00;96796.00;;;;4931404;29;20228;-72
2023/05/24 06:07:34;;;;;;;7.87;6.03;;;;;16.80;96807.00;;;;4931924;29;20236;-72
2023/05/24 06:10:23;;;;;;;8.03;6.30;;;;;17.00;96797.00;;;;4930838;29;20205;-71
2023/05/24 06:13:13;;;;;;;6.30;5.70;;;;;17.10;96802.00;;;;4930460;29;20208;-72
2023/05/24 06:16:03;;;;;;;10.63;7.20;;;;;17.30;96802.00;;;;4925541;29;20622;-72
2023/05/24 06:18:52;;;;;;;7.00;6.30;;;;;17.50;96797.00;;;;4932150;29;20616;-72
2023/05/24 06:21:49;;;;;;;7.53;6.70;;;;;17.80;96797.00;;;;4923768;29;20200;-72
2023/05/24 06:24:38;;;;;;;8.37;7.10;;;;;18.10;96802.00;;;;4931599;29;20686;-72
2023/05/24 06:27:27;;;;;;;10.03;6.50;;;;;18.20;96798.00;;;;4931117;29;20225;-72
2023/05/24 06:30:16;;;;;;;11.57;6.63;;;;;18.40;96805.00;;;;4931910;29;20213;-72
2023/05/24 06:33:07;;;;;;;8.77;7.47;;;;;18.40;96814.00;;;;4931588;29;20209;-72
2023/05/24 06:35:56;;;;;;;12.50;8.20;;;;;18.20;96807.00;;;;4931584;29;20236;-72
2023/05/24 06:38:45;;;;;;;10.13;7.00;;;;;18.30;96811.00;;;;4930578;29;20613;-72
2023/05/24 06:41:34;;;;;;;10.53;8.47;;;;;18.50;96812.00;;;;4930588;29;20232;-72
2023/05/24 06:44:29;;;;;;;11.50;8.93;;;;;18.40;96811.00;;;;4931165;29;20205;-72
2023/05/24 06:47:18;;;;;;;14.80;9.97;;;;;18.20;96817.00;;;;4931535;29;20225;-72
2023/05/24 06:50:10;;;;;;;15.57;9.93;;;;;18.50;96816.00;;;;4931497;29;20697;-72
2023/05/24 06:52:59;;;;;;;13.43;9.10;;;;;18.50;96813.00;;;;4926518;29;20224;-72
2023/05/24 06:55:48;;;;;;;16.60;10.97;;;;;19.00;96824.00;;;;4931289;29;20232;-72
2023/05/24 06:58:37;;;;;;;14.50;9.50;;;;;19.30;96819.00;;;;4931584;29;20208;-72
2023/05/24 07:01:26;;;;;;;15.73;8.67;;;;;19.30;96815.00;;;;4930889;29;20616;-73
2023/05/24 07:04:15;;;;;;;14.27;8.63;;;;;19.20;96816.00;;;;4931359;29;20209;-73
2023/05/24 07:07:05;;;;;;;12.10;7.57;;;;;19.30;96813.00;;;;4927532;29;20225;-72
2023/05/24 07:09:55;;;;;;;8.83;7.63;;;;;19.30;96815.00;;;;4932028;29;20686;-73
2023/05/24 07:12:44;;;;;;;9.90;7.67;;;;;19.50;96830.00;;;;4930990;29;20205;-72
2023/05/24 07:15:33;;;;;;;11.03;7.90;;;;;19.50;96840.00;;;;4930481;29;20255;-72
2023/05/24 07:18:22;;;;;;;11.37;8.37;;;;;19.50;96838.00;;;;4929861;29;20205;-72
2023/05/24 07:21:11;;;;;;;9.90;8.10;;;;;19.60;96849.00;;;;4930877;29;20208;-72
2023/05/24 07:24:02;;;;;;;13.57;8.90;;;;;19.50;96848.00;;;;4931815;29;20215;-73
2023/05/24 07:26:52;;;;;;;13.43;9.13;;;;;19.40;96850.00;;;;4931548;29;20233;-72
2023/05/24 07:29:41;;;;;;;12.60;8.93;;;;;19.40;96851.00;;;;4930745;29;20239;-72
2023/05/24 07:32:31;;;;;;;15.63;9.23;;;;;19.30;96846.00;;;;4930203;29;20693;-72
2023/05/24 07:35:21;;;;;;;14.93;9.87;;;;;19.40;96842.00;;;;4930847;29;20205;-72
2023/05/24 07:38:10;;;;;;;17.00;10.53;;;;;19.40;96849.00;;;;4924920;29;20216;-72
2023/05/24 07:41:03;;;;;;;12.73;9.77;;;;;19.30;96862.00;;;;4925558;29;20212;-72
2023/05/24 07:43:52;;;;;;;12.63;9.73;;;;;19.40;96857.00;;;;4931554;29;20904;-72
2023/05/24 07:46:41;;;;;;;13.30;9.60;;;;;19.40;96858.00;;;;4930893;29;20232;-72
2023/05/24 07:49:30;;;;;;;13.07;10.70;;;;;19.40;96859.00;;;;4930579;29;20761;-72
2023/05/24 07:52:22;;;;;;;14.23;9.77;;;;;19.40;96857.00;;;;4930656;29;20211;-72
2023/05/24 07:55:11;;;;;;;12.47;9.87;;;;;19.30;96860.00;;;;4930694;29;20209;-72
2023/05/24 07:58:01;;;;;;;12.23;10.33;;;;;19.30;96859.00;;;;4931152;29;20243;-72
2023/05/24 08:00:51;;;;;;;11.03;9.73;;;;;19.40;96854.00;;;;4930740;29;20212;-72
2023/05/24 08:03:40;;;;;;;14.17;10.17;;;;;19.50;96854.00;;;;4933106;28;20208;-72
2023/05/24 08:06:29;;;;;;;13.73;11.13;;;;;19.50;96849.00;;;;4934528;29;20232;-71
2023/05/24 08:09:18;;;;;;;11.77;9.80;;;;;19.20;96863.00;;;;4933171;29;20228;-72
2023/05/24 08:12:08;;;;;;;12.73;9.80;;;;;19.10;96863.00;;;;4934974;28;20212;-72
2023/05/24 08:14:58;;;;;;;13.07;10.50;;;;;19.40;96871.00;;;;4934693;29;20669;-72
2023/05/24 08:17:47;;;;;;;13.27;11.87;;;;;19.60;96859.00;;;;4934445;29;20585;-72
2023/05/24 08:20:37;;;;;;;12.33;10.83;;;;;19.30;96859.00;;;;4934712;28;20209;-72
2023/05/24 08:23:28;;;;;;;12.03;9.40;;;;;19.00;96864.00;;;;4934177;29;20212;-72
2023/05/24 08:26:19;;;;;;;11.17;7.77;;;;;17.90;96866.00;;;;4929975;29;20612;-72
2023/05/24 08:29:09;;;;;;;9.37;8.37;;;;;18.30;96862.00;;;;4930929;29;20225;-69
2023/05/24 08:32:00;;;;;;;12.50;8.73;;;;;18.60;96868.00;;;;4928114;29;20211;-70
2023/05/24 08:34:49;;;;;;;11.07;8.57;;;;;18.80;96864.00;;;;4934082;29;20208;-70
2023/05/24 08:37:38;;;;;;;11.00;9.20;;;;;19.20;96873.00;;;;4933358;29;20216;-71
2023/05/24 08:40:27;;;;;;;11.40;8.27;;;;;18.60;96867.00;;;;4933016;29;20212;-72
2023/05/24 08:43:16;;;;;;;9.43;8.10;;;;;18.30;96862.00;;;;4934027;29;20232;-69
2023/05/24 08:46:06;;;;;;;8.43;7.50;;;;;18.30;96872.00;;;;4933850;29;20237;-70
2023/05/24 08:48:58;;;;;;;9.40;7.70;;;;;18.80;96877.00;;;;4927702;29;20235;-70
2023/05/24 08:51:48;;;;;;;13.37;12.00;;;;;18.80;96879.00;;;;4933051;29;20209;-69
2023/05/24 08:54:37;;;;;;;7.70;6.90;;;;;18.20;96873.00;;;;4933287;29;20209;-72
2023/05/24 08:57:27;;;;;;;11.13;7.03;;;;;18.30;96884.00;;;;4932895;29;20240;-70
2023/05/24 09:00:18;;;;;;;11.20;7.70;;;;;17.90;96887.00;;;;4933416;29;20204;-73
2023/05/24 09:03:08;;;;;;;8.93;7.53;;;;;17.80;96888.00;;;;4933666;29;20216;-70
2023/05/24 09:05:59;;;;;;;8.97;6.90;;;;;18.20;96886.00;;;;4927499;29;20239;-70
2023/05/24 09:08:51;;;;;;;8.97;7.03;;;;;18.20;96893.00;;;;4933279;29;20894;-72
2023/05/24 09:11:41;;;;;;;8.30;7.50;;;;;18.30;96897.00;;;;4931500;29;20208;-70
2023/05/24 09:14:30;;;;;;;9.40;6.30;;;;;18.20;96899.00;;;;4932499;29;20208;-70
2023/05/24 09:17:20;;;;;;;6.93;5.73;;;;;18.10;96897.00;;;;4931695;29;20745;-72
2023/05/24 09:20:10;;;;;;;7.47;6.77;;;;;18.10;96899.00;;;;4933643;29;20586;-71
2023/05/24 09:23:03;;;;;;;8.23;7.43;;;;;18.50;96903.00;;;;4933355;29;20216;-71
2023/05/24 09:25:52;;;;;;;7.97;7.17;;;;;18.90;96898.00;;;;4932431;29;20248;-71
2023/05/24 09:28:41;;;;;;;9.47;7.13;;;;;18.70;96901.00;;;;4932807;29;20221;-71
2023/05/24 09:31:34;;;;;;;9.07;6.50;;;;;18.70;96896.00;;;;4930828;29;20221;-72
2023/05/24 09:34:23;;;;;;;7.90;6.97;;;;;18.70;96906.00;;;;4932380;29;20712;-72
2023/05/24 09:37:15;;;;;;;6.23;5.63;;;;;18.60;96896.00;;;;4932718;29;20235;-70
2023/05/24 09:40:07;;;;;;;6.27;5.67;;;;;18.50;96904.00;;;;4932704;29;20197;-72
2023/05/24 09:43:07;;;;;;;7.13;5.70;;;;;18.60;96905.00;;;;4932256;29;20231;-72
2023/05/24 09:45:58;;;;;;;5.80;5.20;;;;;18.40;96906.00;;;;4925918;29;20229;-72
2023/05/24 09:48:58;;;;;;;7.30;6.57;;;;;18.70;96908.00;;;;4932456;29;20228;-72
2023/05/24 09:51:47;;;;;;;9.73;6.27;;;;;18.40;96911.00;;;;4931320;29;20212;-71
2023/05/24 09:54:37;;;;;;;8.10;5.93;;;;;18.60;96916.00;;;;4932302;29;20209;-71
2023/05/24 09:57:27;;;;;;;7.33;6.43;;;;;18.30;96915.00;;;;4930238;29;20225;-70
2023/05/24 10:00:22;;;;;;;7.43;5.97;;;;;18.40;96908.00;;;;4932280;29;20201;-70
2023/05/24 10:03:11;;;;;;;5.77;5.17;;;;;18.60;96918.00;;;;4932463;29;20228;-72
2023/05/24 10:06:03;;;;;;;6.80;5.30;;;;;19.20;96913.00;;;;4927376;29;20261;-73
2023/05/24 10:08:54;;;;;;;7.37;5.33;;;;;19.30;96917.00;;;;4925303;29;20275;-72
2023/05/24 10:11:44;;;;;;;6.50;5.30;;;;;19.40;96912.00;;;;4930190;29;20712;-72
2023/05/24 10:14:36;;;;;;;8.33;5.90;;;;;19.50;96910.00;;;;4931260;29;20212;-72
2023/05/24 10:17:26;;;;;;;7.13;5.67;;;;;19.60;96913.00;;;;4932138;29;20234;-72
2023/05/24 10:20:17;;;;;;;8.50;5.63;;;;;19.40;96927.00;;;;4928166;29;20196;-72
2023/05/24 10:23:09;;;;;;;8.00;6.30;;;;;19.40;96927.00;;;;4932137;29;20209;-72
2023/05/24 10:26:05;;;;;;;7.73;5.43;;;;;19.40;96932.00;;;;4931326;29;20240;-73
2023/05/24 10:28:57;;;;;;;5.80;5.17;;;;;19.40;96927.00;;;;4932371;29;20212;-72
2023/05/24 10:31:48;;;;;;;6.87;5.57;;;;;19.20;96935.00;;;;4925392;29;20212;-72
2023/05/24 10:34:38;;;;;;;6.57;4.87;;;;;19.20;96935.00;;;;4931947;29;20220;-72
2023/05/24 10:37:27;;;;;;;6.90;5.50;;;;;19.20;96937.00;;;;4931164;29;20363;-72
2023/05/24 10:40:18;;;;;;;6.17;5.57;;;;;19.20;96937.00;;;;4932302;29;20204;-72
2023/05/24 10:43:08;;;;;;;6.23;5.63;;;;;19.30;96942.00;;;;4931257;29;20221;-72
2023/05/24 10:45:57;;;;;;;7.13;5.80;;;;;19.20;96944.00;;;;4932118;29;20228;-72
2023/05/24 10:48:59;;;;;;;6.67;5.80;;;;;18.90;96943.00;;;;4931528;29;20587;-73
2023/05/24 10:51:49;;;;;;;8.77;5.33;;;;;19.00;96942.00;;;;4927276;29;20390;-73
2023/05/24 10:54:38;;;;;;;7.73;6.63;;;;;19.00;96947.00;;;;4928817;29;20216;-73
2023/05/24 10:57:29;;;;;;;6.00;5.37;;;;;19.00;96950.00;;;;4931329;29;20204;-73
2023/05/24 11:00:28;;;;;;;7.50;6.10;;;;;18.90;96959.00;;;;4932172;28;20215;-73
2023/05/24 11:03:23;;;;;;;8.83;6.13;;;;;18.60;96951.00;;;;4930654;29;20208;-73
2023/05/24 11:06:14;;;;;;;7.10;6.20;;;;;18.70;96959.00;;;;4931950;29;20236;-73
2023/05/24 11:09:04;;;;;;;5.27;4.77;;;;;18.20;96951.00;;;;4931187;29;20237;-74
2023/05/24 11:12:00;;;;;;;5.90;4.60;;;;;18.00;96951.00;;;;4930487;29;20200;-72
2023/05/24 11:14:51;;;;;;;5.37;4.80;;;;;17.90;96940.00;;;;4929723;29;20707;-71
2023/05/24 11:18:14;;;;;;;7.77;4.47;;;;;17.80;96937.00;;;;4930341;29;20219;-71
2023/05/24 11:21:03;;;;;;;4.40;4.00;;;;;18.40;96945.00;;;;4930529;29;20216;-72
2023/05/24 11:23:53;;;;;;;6.70;5.17;;;;;18.70;96940.00;;;;4924075;29;20223;-72
2023/05/24 11:26:44;;;;;;;4.67;4.23;;;;;18.90;96939.00;;;;4933939;29;20271;-72
2023/05/24 11:29:33;;;;;;;4.80;4.27;;;;;19.00;96944.00;;;;4927822;29;20228;-72
2023/05/24 11:32:23;;;;;;;4.37;3.97;;;;;19.20;96941.00;;;;4929840;29;20602;-71
2023/05/24 11:35:13;;;;;;;9.27;5.67;;;;;19.30;96939.00;;;;4931289;29;20197;-71
2023/05/24 11:38:02;;;;;;;6.80;6.10;;;;;19.20;96937.00;;;;4932970;29;20727;-71
2023/05/24 11:40:52;;;;;;;10.70;6.40;;;;;19.40;96932.00;;;;4933884;29;20216;-71
2023/05/24 11:43:41;;;;;;;9.10;6.20;;;;;19.60;96933.00;;;;4933006;29;20208;-71
2023/05/24 11:46:30;;;;;;;8.37;5.97;;;;;19.80;96935.00;;;;4933416;29;20232;-71
2023/05/24 11:49:19;;;;;;;6.77;5.50;;;;;19.80;96932.00;;;;4934367;29;20211;-72
2023/05/24 11:52:08;;;;;;;9.43;6.47;;;;;19.90;96932.00;;;;4934380;29;20219;-71
2023/05/24 11:54:57;;;;;;;8.23;5.90;;;;;19.90;96934.00;;;;4934858;29;20587;-72
2023/05/24 11:57:52;;;;;;;6.40;5.13;;;;;20.00;96938.00;;;;4935104;29;20223;-72
2023/05/24 12:00:43;;;;;;;6.37;5.53;;;;;20.10;96943.00;;;;4934144;29;20212;-72
2023/05/24 12:03:33;;;;;;;6.47;5.87;;;;;20.20;96943.00;;;;4934028;29;20216;-72
2023/05/24 12:06:22;;;;;;;6.50;5.70;;;;;20.30;96949.00;;;;4933251;29;20560;-72
2023/05/24 12:09:13;;;;;;;6.90;5.63;;;;;20.30;96943.00;;;;4934670;29;20216;-71
2023/05/24 12:12:02;;;;;;;6.83;5.07;;;;;20.20;96935.00;;;;4933593;29;20209;-72
2023/05/24 12:14:56;;;;;;;6.20;5.57;;;;;20.40;96939.00;;;;4934507;29;20215;-72
2023/05/24 12:17:48;;;;;;;5.80;5.20;;;;;20.40;96944.00;;;;4933471;29;20208;-72
2023/05/24 12:20:39;;;;;;;8.10;5.80;;;;;20.20;96944.00;;;;4933609;29;20205;-71
2023/05/24 12:23:30;;;;;;;6.17;5.10;;;;;20.20;96941.00;;;;4933140;29;20216;-71
2023/05/24 12:26:21;;;;;;;6.77;5.37;;;;;20.10;96944.00;;;;4928543;29;20221;-71
2023/05/24 12:29:11;;;;;;;6.80;5.40;;;;;20.10;96949.00;;;;4934999;29;20208;-71
2023/05/24 12:32:02;;;;;;;5.67;5.10;;;;;19.90;96943.00;;;;4928458;29;20232;-72
2023/05/24 12:34:51;;;;;;;6.93;5.00;;;;;19.90;96936.00;;;;4928407;29;20648;-72
2023/05/24 12:37:40;;;;;;;6.70;5.40;;;;;19.80;96949.00;;;;4932008;29;20220;-71
2023/05/24 12:40:33;;;;;;;8.37;5.43;;;;;19.70;96946.00;;;;4933847;29;20216;-70
2023/05/24 12:43:23;;;;;;;5.70;4.70;;;;;19.50;96946.00;;;;4933493;29;20618;-71
2023/05/24 12:46:12;;;;;;;6.20;5.03;;;;;19.30;96946.00;;;;4934246;29;20239;-71
2023/05/24 12:49:03;;;;;;;7.83;5.20;;;;;19.50;96936.00;;;;4928061;29;20208;-71
2023/05/24 12:51:54;;;;;;;5.63;4.97;;;;;19.50;96942.00;;;;4933924;28;20297;-71
2023/05/24 12:54:43;;;;;;;14.07;5.57;;;;;19.50;96956.00;;;;4933919;29;20205;-71
2023/05/24 12:57:32;;;;;;;8.40;6.73;;;;;19.60;96938.00;;;;4933108;29;20209;-71
2023/05/24 13:00:22;;;;;;;7.30;4.03;;;;;19.40;96937.00;;;;4930823;29;20681;-70
2023/05/24 13:03:11;;;;;;;5.67;4.57;;;;;19.50;96941.00;;;;4930610;29;20216;-71
2023/05/24 13:06:02;;;;;;;7.03;5.07;;;;;19.50;96942.00;;;;4932937;29;20224;-71
2023/05/24 13:08:51;;;;;;;5.43;4.87;;;;;19.40;96948.00;;;;4933589;29;20223;-72
2023/05/24 13:11:40;;;;;;;7.47;5.63;;;;;18.90;96946.00;;;;4931354;29;20224;-72
2023/05/24 13:14:30;;;;;;;8.07;5.80;;;;;18.90;96943.00;;;;4932792;29;20220;-72
2023/05/24 13:17:19;;;;;;;6.93;6.07;;;;;18.80;96938.00;;;;4933528;29;20724;-72
2023/05/24 13:20:10;;;;;;;6.53;5.93;;;;;18.80;96930.00;;;;4933647;29;20224;-72
2023/05/24 13:23:00;;;;;;;8.43;6.37;;;;;18.90;96938.00;;;;4932635;29;20209;-72
2023/05/24 13:25:49;;;;;;;6.90;6.30;;;;;18.80;96938.00;;;;4932528;29;20229;-72
2023/05/24 13:28:38;;;;;;;8.33;7.33;;;;;18.80;96933.00;;;;4933389;29;21912;-70
2023/05/24 13:31:34;;;;;;;6.20;5.60;;;;;18.70;96942.00;;;;4933198;28;20643;-72
2023/05/24 13:34:24;;;;;;;7.00;5.07;;;;;18.70;96934.00;;;;4933113;29;20466;-72
2023/05/24 13:37:15;;;;;;;5.97;4.83;;;;;18.30;96936.00;;;;4932467;29;20228;-72
2023/05/24 13:40:06;;;;;;;6.93;6.23;;;;;18.40;96930.00;;;;4932962;29;20223;-72
2023/05/24 13:42:57;;;;;;;6.10;5.37;;;;;18.30;96927.00;;;;4933332;29;20213;-72
2023/05/24 13:45:46;;;;;;;7.37;5.60;;;;;18.30;96921.00;;;;4932950;29;20220;-72
2023/05/24 13:48:35;;;;;;;6.23;5.63;;;;;18.40;96917.00;;;;4932566;29;20209;-72
2023/05/24 13:51:25;;;;;;;5.80;4.87;;;;;18.50;96918.00;;;;4932093;29;20236;-72
2023/05/24 13:54:15;;;;;;;5.80;4.40;;;;;18.50;96917.00;;;;4933619;28;20220;-72
2023/05/24 13:57:06;;;;;;;3.47;3.17;;;;;18.50;96919.00;;;;4932150;29;20232;-72
2023/05/24 13:59:55;;;;;;;5.93;3.00;;;;;18.40;96912.00;;;;4929362;29;20220;-72
2023/05/24 14:02:45;;;;;;;3.53;3.23;;;;;18.40;96906.00;;;;4930970;29;20196;-72
2023/05/24 14:05:34;;;;;;;8.40;5.20;;;;;18.30;96910.00;;;;4929371;29;20873;-72
2023/05/24 14:08:23;;;;;;;6.23;4.67;;;;;18.30;96913.00;;;;4931224;29;20212;-72
2023/05/24 14:11:13;;;;;;;10.20;6.30;;;;;18.30;96915.00;;;;4931758;29;20597;-72